Time;durP1;ratioP1;P1;durP2;ratioP2;P2;SDS_P1;SDS_P2;PMS_P1;PMS_P2;Temp;Humidity;BMP_temperature;BMP_pressure;BME280_temperature;BME280_humidity;BME280_pressure;Samples;Min_cycle;Max_cycle;Signal;HPM_P1;HPM_P2
2022/03/08 00:01:02;;;;;;;38.20;12.70;;;;;;;-2.29;88.11;100090.36;103523;1300;24263;-26
2022/03/08 00:03:28;;;;;;;28.10;11.70;;;;;;;-2.28;88.94;100094.34;103553;1300;24256;-29
2022/03/08 00:05:54;;;;;;;33.90;12.60;;;;;;;-2.25;87.82;100089.98;103535;1300;24472;-26
2022/03/08 00:08:20;;;;;;;35.90;13.20;;;;;;;-2.24;87.30;100093.06;103554;1302;24369;-29
2022/03/08 00:10:46;;;;;;;27.40;9.50;;;;;;;-2.24;87.91;100091.85;103599;1300;24215;-29
2022/03/08 00:13:12;;;;;;;31.80;11.90;;;;;;;-2.22;88.92;100092.23;103543;1300;24320;-29
2022/03/08 00:15:38;;;;;;;31.10;9.40;;;;;;;-2.22;89.02;100094.48;103571;1300;24304;-25
2022/03/08 00:18:04;;;;;;;26.70;10.40;;;;;;;-2.23;88.35;100088.25;103521;1300;24217;-30
2022/03/08 00:20:30;;;;;;;29.70;11.90;;;;;;;-2.28;87.88;100088.06;103511;1300;24437;-26
2022/03/08 00:22:56;;;;;;;27.00;10.30;;;;;;;-2.31;89.03;100084.60;103578;1301;24355;-26
2022/03/08 00:25:22;;;;;;;32.60;10.60;;;;;;;-2.37;88.85;100082.10;103514;1300;24264;-26
2022/03/08 00:27:49;;;;;;;26.60;10.00;;;;;;;-2.42;88.46;100082.96;103575;1300;24408;-25
2022/03/08 00:30:16;;;;;;;30.10;11.20;;;;;;;-2.45;88.76;100083.70;103496;1300;24218;-26
2022/03/08 00:32:42;;;;;;;21.70;8.80;;;;;;;-2.45;89.52;100079.30;103570;1302;25385;-25
2022/03/08 00:35:08;;;;;;;30.30;11.00;;;;;;;-2.43;90.60;100074.13;103420;1301;24310;-29
2022/03/08 00:37:34;;;;;;;41.90;12.50;;;;;;;-2.44;90.35;100074.66;103559;1300;24199;-27
2022/03/08 00:39:59;;;;;;;27.90;10.60;;;;;;;-2.45;89.80;100077.33;103551;1300;24246;-28
2022/03/08 00:42:25;;;;;;;26.60;9.30;;;;;;;-2.49;90.43;100079.06;103547;1301;22955;-25
2022/03/08 00:44:51;;;;;;;13.70;5.50;;;;;;;-2.53;91.62;100078.73;103524;1302;24214;-30
2022/03/08 00:47:16;;;;;;;14.80;6.90;;;;;;;-2.53;92.04;100078.89;103572;1300;24308;-28
2022/03/08 00:49:42;;;;;;;27.00;7.70;;;;;;;-2.53;89.91;100079.45;103497;1302;24211;-26
2022/03/08 00:52:08;;;;;;;16.60;5.60;;;;;;;-2.52;89.48;100078.70;103530;1301;24328;-28
2022/03/08 00:54:33;;;;;;;22.20;5.50;;;;;;;-2.53;91.45;100079.62;103537;1300;24311;-30
2022/03/08 00:56:59;;;;;;;16.70;6.60;;;;;;;-2.58;92.47;100080.48;103479;1300;24256;-29
2022/03/08 00:59:25;;;;;;;18.00;5.50;;;;;;;-2.62;92.82;100081.79;103505;1300;24368;-25
2022/03/08 01:01:50;;;;;;;25.80;5.40;;;;;;;-2.67;93.05;100078.76;103542;1300;24380;-25
2022/03/08 01:04:16;;;;;;;10.20;4.90;;;;;;;-2.69;93.55;100076.78;103595;1300;24348;-27
2022/03/08 01:06:42;;;;;;;15.50;5.20;;;;;;;-2.74;93.76;100075.34;103551;1300;24324;-26
2022/03/08 01:09:08;;;;;;;21.20;6.10;;;;;;;-2.76;93.50;100073.92;103595;1300;24301;-29
2022/03/08 01:11:36;;;;;;;20.80;6.60;;;;;;;-2.76;90.61;100077.20;103502;1302;24989;-28
2022/03/08 01:14:03;;;;;;;29.00;8.00;;;;;;;-2.79;90.05;100076.69;103574;1300;24249;-30
2022/03/08 01:16:29;;;;;;;20.90;7.10;;;;;;;-2.82;88.79;100080.15;103465;1300;24438;-28
2022/03/08 01:18:55;;;;;;;21.50;7.60;;;;;;;-2.87;88.60;100077.88;103666;1300;24356;-28
2022/03/08 01:21:23;;;;;;;29.10;8.60;;;;;;;-2.93;89.63;100075.42;103540;1300;23975;-26
2022/03/08 01:23:49;;;;;;;23.30;8.80;;;;;;;-2.92;92.54;100072.93;103545;1300;24240;-25
2022/03/08 01:26:14;;;;;;;18.30;7.30;;;;;;;-2.95;92.72;100071.70;103470;1300;24218;-28
2022/03/08 01:28:40;;;;;;;16.80;7.80;;;;;;;-2.95;93.11;100072.06;103551;1300;22759;-30
2022/03/08 01:31:06;;;;;;;13.00;6.40;;;;;;;-2.95;92.72;100071.70;103531;1300;24412;-26
2022/03/08 01:33:32;;;;;;;15.70;7.30;;;;;;;-2.99;93.48;100070.38;103499;1302;24217;-28
2022/03/08 01:35:58;;;;;;;30.30;7.90;;;;;;;-3.06;95.17;100073.60;103507;1302;24218;-28
2022/03/08 01:38:24;;;;;;;20.80;6.90;;;;;;;-3.13;95.80;100074.73;103717;1300;24264;-29
2022/03/08 01:40:51;;;;;;;21.60;7.30;;;;;;;-3.20;96.28;100072.53;103539;1302;24246;-26
2022/03/08 01:43:17;;;;;;;15.70;5.80;;;;;;;-3.28;97.02;100076.01;103602;1302;24364;-28
2022/03/08 01:45:43;;;;;;;24.10;7.30;;;;;;;-3.34;97.33;100071.42;103567;1300;24411;-25
2022/03/08 01:48:09;;;;;;;18.40;7.20;;;;;;;-3.40;97.77;100070.24;103530;1301;24341;-29
2022/03/08 01:50:34;;;;;;;25.70;8.70;;;;;;;-3.45;98.22;100076.34;103538;1301;24193;-29
2022/03/08 01:53:00;;;;;;;26.90;7.70;;;;;;;-3.49;98.85;100080.23;103582;1300;24308;-25
2022/03/08 01:55:26;;;;;;;23.50;8.50;;;;;;;-3.52;98.83;100081.25;103432;1300;24338;-25
2022/03/08 01:57:52;;;;;;;17.40;7.30;;;;;;;-3.56;98.74;100082.05;103508;1300;22626;-25
2022/03/08 02:00:20;;;;;;;14.20;5.90;;;;;;;-3.58;98.48;100080.23;103515;1303;24365;-28
2022/03/08 02:02:46;;;;;;;30.00;7.40;;;;;;;-3.56;97.60;100079.56;103642;1301;25841;-25
2022/03/08 02:05:12;;;;;;;15.50;5.30;;;;;;;-3.54;97.36;100082.29;103480;1302;24377;-23
2022/03/08 02:07:37;;;;;;;13.20;6.60;;;;;;;-3.53;97.55;100084.86;103587;1303;24214;-30
2022/03/08 02:10:05;;;;;;;16.20;6.30;;;;;;;-3.55;98.42;100084.40;103575;1301;25067;-27
2022/03/08 02:12:30;;;;;;;18.20;6.00;;;;;;;-3.58;99.01;100084.42;103611;1302;24212;-25
2022/03/08 02:14:56;;;;;;;13.20;6.40;;;;;;;-3.63;99.11;100082.27;103551;1300;22859;-28
2022/03/08 02:17:22;;;;;;;22.30;8.00;;;;;;;-3.66;98.93;100081.58;103534;1301;22626;-25
2022/03/08 02:19:49;;;;;;;23.60;8.00;;;;;;;-3.69;99.13;100078.96;103532;1300;24244;-28
2022/03/08 02:22:16;;;;;;;22.90;8.70;;;;;;;-3.67;98.51;100081.84;103553;1302;24259;-30
2022/03/08 02:24:41;;;;;;;17.40;6.00;;;;;;;-3.69;98.72;100079.11;103630;1300;24219;-26
2022/03/08 02:27:08;;;;;;;25.00;6.80;;;;;;;-3.65;98.99;100079.78;103917;1300;22496;-28
2022/03/08 02:29:33;;;;;;;11.30;6.50;;;;;;;-3.64;98.08;100080.08;103582;1303;24298;-28
2022/03/08 02:31:59;;;;;;;25.80;9.20;;;;;;;-3.68;98.63;100081.02;103498;1302;24234;-29
2022/03/08 02:34:25;;;;;;;14.40;5.80;;;;;;;-3.73;98.38;100084.96;103567;1300;24207;-30
2022/03/08 02:36:55;;;;;;;15.90;6.60;;;;;;;-3.73;98.22;100081.98;103544;1302;24214;-27
2022/03/08 02:39:21;;;;;;;10.90;5.00;;;;;;;-3.73;98.72;100086.52;103539;1302;24272;-29
2022/03/08 02:41:47;;;;;;;12.10;6.50;;;;;;;-3.75;99.37;100087.50;103623;1302;24214;-28
2022/03/08 02:44:13;;;;;;;17.90;7.00;;;;;;;-3.72;99.92;100086.64;103561;1303;24240;-30
2022/03/08 02:46:39;;;;;;;25.00;7.90;;;;;;;-3.73;100.00;100085.47;103361;1302;24412;-30
2022/03/08 02:49:04;;;;;;;19.30;6.70;;;;;;;-3.78;99.92;100087.16;103627;1301;22749;-25
2022/03/08 02:51:30;;;;;;;16.90;7.00;;;;;;;-3.81;99.88;100080.50;103606;1303;24249;-26
2022/03/08 02:53:56;;;;;;;19.80;7.10;;;;;;;-3.86;99.71;100082.16;103661;1301;24204;-30
2022/03/08 02:56:21;;;;;;;22.90;7.60;;;;;;;-3.91;99.42;100084.08;103607;1300;24361;-26
2022/03/08 02:58:47;;;;;;;22.50;9.60;;;;;;;-3.97;99.69;100082.85;103755;1300;24253;-25
2022/03/08 03:01:13;;;;;;;7.60;4.00;;;;;;;-4.00;99.94;100080.20;103914;1303;24365;-29
2022/03/08 03:03:39;;;;;;;13.20;5.80;;;;;;;-3.99;100.00;100081.73;104067;1300;24210;-25
2022/03/08 03:06:04;;;;;;;13.90;5.70;;;;;;;-4.00;100.00;100085.44;103626;1302;24348;-29
2022/03/08 03:08:30;;;;;;;18.20;7.70;;;;;;;-4.00;99.38;100085.45;103456;1302;24317;-25
2022/03/08 03:10:56;;;;;;;15.30;6.70;;;;;;;-4.02;97.63;100085.20;103520;1300;24188;-29
2022/03/08 03:13:22;;;;;;;13.40;6.60;;;;;;;-3.99;97.32;100090.99;103530;1300;22631;-29
2022/03/08 03:15:47;;;;;;;19.40;5.70;;;;;;;-3.99;97.24;100093.09;103570;1303;24319;-29
2022/03/08 03:18:13;;;;;;;15.00;7.80;;;;;;;-4.03;95.38;100091.04;103582;1302;22497;-29
2022/03/08 03:20:39;;;;;;;17.00;5.80;;;;;;;-4.06;94.32;100091.40;103573;1303;24225;-28
2022/03/08 03:23:04;;;;;;;19.70;6.40;;;;;;;-4.07;96.12;100097.02;103571;1300;22618;-25
2022/03/08 03:25:30;;;;;;;12.20;5.70;;;;;;;-4.11;97.53;100094.29;103575;1302;24246;-25
2022/03/08 03:27:56;;;;;;;22.60;5.90;;;;;;;-4.09;99.46;100091.73;103525;1300;24249;-25
2022/03/08 03:30:23;;;;;;;11.30;5.80;;;;;;;-4.07;100.00;100091.81;103565;1300;24368;-27
2022/03/08 03:32:48;;;;;;;14.40;6.10;;;;;;;-4.13;100.00;100091.81;103562;1300;24249;-25
2022/03/08 03:35:14;;;;;;;8.90;5.20;;;;;;;-4.15;100.00;100088.05;103561;1300;24286;-26
2022/03/08 03:37:40;;;;;;;7.30;4.00;;;;;;;-4.16;100.00;100084.80;103555;1300;24367;-30
2022/03/08 03:40:06;;;;;;;16.80;7.00;;;;;;;-4.17;100.00;100086.75;103550;1302;22510;-26
2022/03/08 03:42:32;;;;;;;24.90;9.00;;;;;;;-4.27;100.00;100088.54;103597;1303;24329;-26
2022/03/08 03:44:58;;;;;;;17.10;7.50;;;;;;;-4.35;100.00;100096.02;103567;1303;24212;-26
2022/03/08 03:47:24;;;;;;;20.40;8.50;;;;;;;-4.38;100.00;100101.04;103536;1303;24250;-29
2022/03/08 03:49:49;;;;;;;18.30;6.60;;;;;;;-4.37;100.00;100103.27;103596;1301;24215;-25
2022/03/08 03:52:15;;;;;;;20.60;8.50;;;;;;;-4.35;100.00;100103.16;103556;1303;24211;-25
2022/03/08 03:54:41;;;;;;;25.10;8.80;;;;;;;-4.31;100.00;100102.23;103541;1300;24467;-29
2022/03/08 03:57:08;;;;;;;19.30;7.10;;;;;;;-4.29;100.00;100101.77;103549;1300;24344;-26
2022/03/08 03:59:34;;;;;;;20.30;8.90;;;;;;;-4.25;100.00;100104.19;103489;1302;24218;-29
2022/03/08 04:01:59;;;;;;;20.10;8.00;;;;;;;-4.23;100.00;100106.70;103721;1303;24249;-30
2022/03/08 04:04:25;;;;;;;15.50;6.80;;;;;;;-4.22;100.00;100102.61;103487;1302;24304;-28
2022/03/08 04:06:51;;;;;;;20.90;9.10;;;;;;;-4.18;100.00;100101.90;103553;1302;25645;-28
2022/03/08 04:09:16;;;;;;;20.00;8.30;;;;;;;-4.17;100.00;100105.13;103531;1302;22520;-27
2022/03/08 04:11:42;;;;;;;15.40;6.10;;;;;;;-4.16;100.00;100107.67;103607;1302;24377;-26
2022/03/08 04:14:08;;;;;;;23.90;8.20;;;;;;;-4.15;100.00;100102.41;103173;1302;568767;-29
2022/03/08 04:16:33;;;;;;;17.60;7.40;;;;;;;-4.15;100.00;100101.70;103581;1303;24214;-30
2022/03/08 04:18:59;;;;;;;18.10;6.60;;;;;;;-4.14;100.00;100103.38;103603;1303;24368;-25
2022/03/08 04:21:25;;;;;;;8.50;4.60;;;;;;;-4.12;100.00;100109.04;103562;1301;24225;-28
2022/03/08 04:23:50;;;;;;;18.70;6.70;;;;;;;-4.10;100.00;100111.05;103582;1301;24157;-25
2022/03/08 04:26:16;;;;;;;24.00;8.80;;;;;;;-4.08;100.00;100114.09;103597;1300;24250;-28
2022/03/08 04:28:42;;;;;;;22.40;8.00;;;;;;;-4.07;100.00;100112.95;103571;1303;24339;-25
2022/03/08 04:31:07;;;;;;;22.30;7.60;;;;;;;-4.07;100.00;100122.21;103526;1300;24309;-29
2022/03/08 04:33:33;;;;;;;23.00;8.50;;;;;;;-4.07;100.00;100123.63;103568;1300;24310;-29
2022/03/08 04:35:59;;;;;;;17.50;7.40;;;;;;;-4.05;100.00;100123.02;103564;1303;24305;-25
2022/03/08 04:38:24;;;;;;;15.70;5.40;;;;;;;-4.06;100.00;100122.89;103555;1303;24257;-25
2022/03/08 04:40:50;;;;;;;39.00;9.40;;;;;;;-4.08;100.00;100129.08;103606;1303;24268;-28
2022/03/08 04:43:15;;;;;;;24.00;10.00;;;;;;;-4.02;100.00;100125.30;103554;1300;24200;-31
2022/03/08 04:45:41;;;;;;;23.20;8.70;;;;;;;-4.02;100.00;100127.52;103556;1302;22499;-28
2022/03/08 04:48:07;;;;;;;19.30;9.20;;;;;;;-4.04;100.00;100127.81;103555;1302;24347;-25
2022/03/08 04:50:32;;;;;;;20.90;9.70;;;;;;;-4.06;100.00;100129.02;103521;1302;24314;-30
2022/03/08 04:52:59;;;;;;;21.30;9.70;;;;;;;-4.06;100.00;100128.81;103575;1301;24297;-25
2022/03/08 04:55:25;;;;;;;26.50;8.40;;;;;;;-4.07;100.00;100132.73;103573;1302;22784;-24
2022/03/08 04:57:51;;;;;;;22.20;10.10;;;;;;;-4.09;100.00;100132.86;103647;1301;24467;-25
2022/03/08 05:00:17;;;;;;;18.70;9.40;;;;;;;-4.12;100.00;100129.70;103450;1302;24122;-27
2022/03/08 05:02:43;;;;;;;21.60;9.00;;;;;;;-4.14;100.00;100133.83;103510;1300;24246;-26
2022/03/08 05:05:09;;;;;;;19.80;9.40;;;;;;;-4.15;100.00;100134.27;103568;1301;24301;-30
2022/03/08 05:07:36;;;;;;;18.00;8.00;;;;;;;-4.17;100.00;100134.68;103509;1300;24189;-29
2022/03/08 05:10:04;;;;;;;17.10;7.90;;;;;;;-4.16;100.00;100137.94;103549;1302;24314;-29
2022/03/08 05:12:30;;;;;;;23.60;7.40;;;;;;;-4.18;100.00;100136.83;103847;1301;24306;-29
2022/03/08 05:14:57;;;;;;;22.30;8.50;;;;;;;-4.20;100.00;100132.92;103545;1303;24374;-29
2022/03/08 05:17:22;;;;;;;19.60;8.00;;;;;;;-4.23;100.00;100130.63;103625;1300;22498;-26
2022/03/08 05:19:49;;;;;;;41.70;8.80;;;;;;;-4.22;100.00;100131.27;103588;1302;22815;-26
2022/03/08 05:22:15;;;;;;;20.70;7.60;;;;;;;-4.23;100.00;100130.77;103578;1301;24246;-25
2022/03/08 05:24:41;;;;;;;14.90;7.40;;;;;;;-4.23;100.00;100133.04;103726;1301;24217;-29
2022/03/08 05:27:07;;;;;;;20.60;8.20;;;;;;;-4.20;100.00;100141.68;103645;1301;24437;-29
2022/03/08 05:29:34;;;;;;;32.70;9.70;;;;;;;-4.20;100.00;100147.80;103775;1300;24254;-28
2022/03/08 05:32:00;;;;;;;16.00;6.70;;;;;;;-4.16;100.00;100154.72;103501;1302;24393;-29
2022/03/08 05:34:26;;;;;;;20.30;8.70;;;;;;;-4.08;100.00;100157.46;103799;1303;22499;-29
2022/03/08 05:36:52;;;;;;;23.90;10.30;;;;;;;-3.99;100.00;100153.77;103671;1302;24211;-27
2022/03/08 05:39:18;;;;;;;30.30;9.90;;;;;;;-3.93;99.60;100159.38;103727;1302;22912;-28
2022/03/08 05:41:43;;;;;;;18.30;8.70;;;;;;;-3.92;99.17;100165.29;103725;1300;24413;-26
2022/03/08 05:44:09;;;;;;;24.40;8.90;;;;;;;-3.89;98.97;100167.06;103705;1302;24196;-25
2022/03/08 05:46:35;;;;;;;13.40;7.90;;;;;;;-3.81;98.99;100178.86;103888;1300;24319;-26
2022/03/08 05:49:01;;;;;;;16.60;7.30;;;;;;;-3.78;98.77;100188.62;103754;1302;22511;-29
2022/03/08 05:51:26;;;;;;;19.20;8.90;;;;;;;-3.67;98.66;100189.46;103861;1300;23022;-26
2022/03/08 05:53:52;;;;;;;12.20;6.30;;;;;;;-3.58;97.84;100177.70;103582;1302;22725;-25
2022/03/08 05:56:18;;;;;;;18.40;8.60;;;;;;;-3.39;97.58;100183.79;103633;1300;22770;-25
2022/03/08 05:58:43;;;;;;;13.90;6.70;;;;;;;-3.30;97.58;100191.48;103749;1301;24338;-28
2022/03/08 06:01:09;;;;;;;20.90;8.20;;;;;;;-3.17;97.64;100187.95;103643;1301;24470;-29
2022/03/08 06:03:35;;;;;;;18.00;8.30;;;;;;;-3.01;97.46;100184.74;103605;1303;22497;-29
2022/03/08 06:06:00;;;;;;;16.20;6.90;;;;;;;-2.93;96.75;100182.14;103646;1303;24214;-26
2022/03/08 06:08:26;;;;;;;8.80;5.60;;;;;;;-2.78;95.73;100184.02;103632;1301;23987;-29
2022/03/08 06:10:52;;;;;;;10.00;5.60;;;;;;;-2.77;94.87;100184.87;103590;1303;23966;-26
2022/03/08 06:13:17;;;;;;;13.90;5.30;;;;;;;-2.71;94.70;100185.21;103513;1300;24277;-27
2022/03/08 06:15:43;;;;;;;14.00;5.20;;;;;;;-2.58;94.15;100189.34;103505;1300;24249;-29
2022/03/08 06:18:09;;;;;;;10.60;4.90;;;;;;;-2.44;94.36;100186.02;103608;1300;22623;-26
2022/03/08 06:20:35;;;;;;;8.40;4.90;;;;;;;-2.27;94.26;100187.95;103580;1300;24345;-26
2022/03/08 06:23:00;;;;;;;14.80;6.90;;;;;;;-2.12;94.18;100192.79;103818;1302;24249;-26
2022/03/08 06:25:26;;;;;;;12.80;5.00;;;;;;;-1.98;93.40;100193.84;103842;1300;24218;-29
2022/03/08 06:27:52;;;;;;;13.90;6.50;;;;;;;-1.88;92.31;100196.73;103752;1300;24243;-28
2022/03/08 06:30:18;;;;;;;13.00;5.20;;;;;;;-1.80;91.86;100193.44;103660;1301;24412;-28
2022/03/08 06:32:44;;;;;;;26.30;6.60;;;;;;;-1.71;91.72;100196.02;103643;1302;24246;-28
2022/03/08 06:35:11;;;;;;;10.20;5.00;;;;;;;-1.64;91.15;100196.42;103597;1303;24218;-25
2022/03/08 06:37:37;;;;;;;8.40;5.70;;;;;;;-1.57;90.53;100200.75;103625;1300;24247;-28
2022/03/08 06:40:03;;;;;;;9.40;4.50;;;;;;;-1.53;89.53;100206.05;103679;1300;24244;-26
2022/03/08 06:42:29;;;;;;;9.70;5.10;;;;;;;-1.32;89.74;100203.80;103727;1301;24331;-29
2022/03/08 06:44:55;;;;;;;9.70;4.10;;;;;;;-1.26;88.97;100204.30;103568;1303;24310;-25
2022/03/08 06:47:21;;;;;;;7.60;3.40;;;;;;;-1.30;87.29;100210.75;103670;1301;24228;-29
2022/03/08 06:49:48;;;;;;;4.00;3.30;;;;;;;-1.18;87.47;100207.30;103632;1303;24246;-26
2022/03/08 06:52:14;;;;;;;7.80;3.50;;;;;;;-1.08;88.29;100200.95;103622;1302;24264;-26
2022/03/08 06:54:40;;;;;;;5.70;3.30;;;;;;;-1.07;86.45;100207.94;103633;1303;24247;-31
2022/03/08 06:57:06;;;;;;;7.60;4.80;;;;;;;-1.02;86.42;100211.80;103835;1300;24219;-26
2022/03/08 06:59:32;;;;;;;7.30;4.10;;;;;;;-0.98;86.61;100210.70;103909;1300;22693;-29
2022/03/08 07:01:59;;;;;;;8.20;4.70;;;;;;;-0.83;86.92;100214.09;103585;1302;24216;-26
2022/03/08 07:04:25;;;;;;;16.50;5.10;;;;;;;-0.82;85.98;100211.38;103642;1301;24211;-24
2022/03/08 07:06:51;;;;;;;9.70;4.90;;;;;;;-0.75;86.02;100211.63;103588;1300;22838;-29
2022/03/08 07:09:16;;;;;;;6.60;3.60;;;;;;;-0.72;86.50;100213.67;103542;1302;24287;-30
2022/03/08 07:11:43;;;;;;;9.20;4.60;;;;;;;-0.56;86.45;100204.98;103663;1300;24411;-30
2022/03/08 07:14:09;;;;;;;13.60;6.10;;;;;;;-0.55;86.95;100206.34;103545;1302;23823;-31
2022/03/08 07:16:35;;;;;;;11.20;6.10;;;;;;;-0.44;87.02;100205.04;103533;1302;23814;-26
2022/03/08 07:19:01;;;;;;;10.20;4.90;;;;;;;-0.40;86.28;100207.98;103831;1300;24245;-26
2022/03/08 07:21:26;;;;;;;9.60;4.80;;;;;;;-0.38;85.66;100209.73;103641;1300;22721;-25
2022/03/08 07:23:52;;;;;;;7.70;5.10;;;;;;;-0.32;85.66;100210.02;103580;1300;24317;-28
2022/03/08 07:26:18;;;;;;;8.60;4.80;;;;;;;-0.25;85.71;100212.02;103582;1300;24328;-30
2022/03/08 07:28:43;;;;;;;8.30;3.50;;;;;;;-0.20;85.64;100217.11;103614;1300;24224;-30
2022/03/08 07:31:12;;;;;;;6.50;4.50;;;;;;;-0.15;84.65;100223.30;103541;1300;24211;-25
2022/03/08 07:33:40;;;;;;;5.10;3.70;;;;;;;-0.17;84.16;100224.10;103554;1302;24215;-27
2022/03/08 07:36:06;;;;;;;12.90;5.40;;;;;;;-0.11;84.12;100223.00;103529;1300;24301;-26
2022/03/08 07:38:32;;;;;;;13.00;4.10;;;;;;;-0.09;84.04;100225.13;103517;1301;24246;-25
2022/03/08 07:40:58;;;;;;;8.60;4.80;;;;;;;-0.06;83.83;100230.39;103549;1300;24224;-25
2022/03/08 07:43:23;;;;;;;8.40;4.30;;;;;;;-0.12;82.75;100232.72;103612;1302;24286;-25
2022/03/08 07:45:50;;;;;;;9.60;5.40;;;;;;;-0.09;82.75;100231.26;103841;1303;22717;-31
2022/03/08 07:48:17;;;;;;;6.60;3.40;;;;;;;-0.04;82.78;100230.59;103719;1300;23806;-30
2022/03/08 07:50:43;;;;;;;5.30;3.30;;;;;;;-0.09;82.21;100229.66;103545;1303;24192;-29
2022/03/08 07:53:09;;;;;;;10.10;3.80;;;;;;;-0.04;82.26;100230.57;103663;1300;24318;-28
2022/03/08 07:55:35;;;;;;;4.90;3.00;;;;;;;-0.22;81.08;100235.16;103662;1300;24205;-30
2022/03/08 07:58:01;;;;;;;3.50;2.60;;;;;;;-0.13;81.84;100235.80;103522;1303;24322;-27
2022/03/08 08:00:27;;;;;;;6.50;3.80;;;;;;;-0.03;81.85;100231.23;103381;1303;22598;-31
2022/03/08 08:02:53;;;;;;;5.40;3.20;;;;;;;0.16;81.99;100227.94;103621;1303;24153;-30
2022/03/08 08:05:19;;;;;;;5.20;3.70;;;;;;;-0.14;79.58;100229.21;103562;1300;24311;-30
2022/03/08 08:07:45;;;;;;;8.00;3.20;;;;;;;-0.13;79.97;100230.50;103577;1301;22499;-30
2022/03/08 08:10:11;;;;;;;13.10;3.50;;;;;;;-0.03;80.39;100230.67;103530;1300;24224;-27
2022/03/08 08:12:37;;;;;;;9.60;4.70;;;;;;;-0.06;80.23;100235.52;103668;1300;22891;-28
2022/03/08 08:15:04;;;;;;;4.50;2.70;;;;;;;0.12;79.68;100232.48;103610;1301;24259;-25
2022/03/08 08:17:30;;;;;;;4.40;2.60;;;;;;;0.01;77.81;100230.40;103666;1300;23986;-29
2022/03/08 08:19:56;;;;;;;1.80;1.50;;;;;;;0.07;77.73;100230.52;103539;1300;22608;-28
2022/03/08 08:22:22;;;;;;;5.70;2.30;;;;;;;-0.04;76.74;100233.76;103683;1300;24217;-27
2022/03/08 08:24:48;;;;;;;7.30;2.80;;;;;;;0.16;78.46;100235.71;103677;1300;22495;-28
2022/03/08 08:27:13;;;;;;;4.50;2.20;;;;;;;0.29;78.57;100242.17;103540;1300;24297;-30
2022/03/08 08:29:39;;;;;;;5.80;2.10;;;;;;;0.35;77.45;100243.48;103657;1300;24397;-27
2022/03/08 08:32:05;;;;;;;3.70;2.10;;;;;;;0.42;76.41;100245.25;103525;1301;24249;-25
2022/03/08 08:34:31;;;;;;;2.40;1.50;;;;;;;0.20;75.66;100250.76;103704;1300;24419;-31
2022/03/08 08:36:59;;;;;;;6.30;2.20;;;;;;;0.22;76.66;100250.60;103682;1303;23879;-29
2022/03/08 08:39:24;;;;;;;4.30;1.70;;;;;;;0.28;76.52;100248.91;103716;1300;24212;-26
2022/03/08 08:41:50;;;;;;;3.80;1.60;;;;;;;0.32;75.21;100248.31;103654;1300;24252;-28
2022/03/08 08:44:16;;;;;;;6.30;2.30;;;;;;;0.22;74.54;100250.21;103616;1300;24297;-31
2022/03/08 08:46:42;;;;;;;3.40;2.30;;;;;;;0.20;75.05;100251.92;103753;1300;24262;-28
2022/03/08 08:49:08;;;;;;;6.10;2.50;;;;;;;0.31;75.77;100258.92;103598;1300;24210;-25
2022/03/08 08:51:34;;;;;;;3.90;1.70;;;;;;;0.22;75.53;100259.02;103518;1300;24243;-27
2022/03/08 08:54:00;;;;;;;8.00;1.60;;;;;;;0.41;76.49;100258.56;103640;1300;24189;-28
2022/03/08 08:56:26;;;;;;;2.80;1.60;;;;;;;0.51;75.76;100265.21;103547;1300;24283;-25
2022/03/08 08:58:52;;;;;;;11.20;3.60;;;;;;;0.65;75.64;100270.54;103643;1301;24370;-28
2022/03/08 09:01:18;;;;;;;43.20;14.00;;;;;;;0.66;75.19;100273.50;103580;1302;24224;-25
2022/03/08 09:03:43;;;;;;;16.60;5.40;;;;;;;0.73;76.16;100273.65;103689;1300;24192;-28
2022/03/08 09:06:09;;;;;;;6.60;3.80;;;;;;;0.88;76.11;100278.05;103568;1300;24300;-28
2022/03/08 09:08:35;;;;;;;4.60;2.20;;;;;;;1.01;75.42;100280.60;103581;1300;25222;-29
2022/03/08 09:11:01;;;;;;;3.70;2.00;;;;;;;0.99;74.14;100280.42;103621;1300;24181;-27
2022/03/08 09:13:27;;;;;;;7.20;2.50;;;;;;;1.02;73.81;100282.98;103546;1302;24368;-30
2022/03/08 09:15:53;;;;;;;12.70;5.40;;;;;;;0.93;74.21;100284.23;103497;1300;25892;-28
2022/03/08 09:18:19;;;;;;;8.20;2.80;;;;;;;1.03;74.06;100292.65;103650;1300;22508;-28
2022/03/08 09:20:45;;;;;;;7.20;3.30;;;;;;;1.07;73.26;100287.55;103626;1300;24427;-29
2022/03/08 09:23:12;;;;;;;5.20;2.80;;;;;;;1.10;73.17;100287.36;103645;1300;24311;-27
2022/03/08 09:25:38;;;;;;;12.00;2.80;;;;;;;1.31;74.14;100281.91;103567;1300;24257;-28
2022/03/08 09:28:06;;;;;;;5.00;2.60;;;;;;;1.51;73.31;100274.86;103660;1300;24336;-29
2022/03/08 09:30:34;;;;;;;3.30;2.30;;;;;;;1.67;71.59;100264.83;103568;1300;24196;-25
2022/03/08 09:33:01;;;;;;;4.90;3.10;;;;;;;1.73;70.69;100269.73;103598;1300;22630;-26
2022/03/08 09:35:28;;;;;;;8.70;4.10;;;;;;;1.69;70.35;100268.26;103630;1300;23822;-28
2022/03/08 09:37:54;;;;;;;13.40;2.30;;;;;;;1.85;69.53;100268.95;103420;1301;24384;-25
2022/03/08 09:40:20;;;;;;;2.80;1.30;;;;;;;1.87;68.18;100273.38;103553;1300;24333;-26
2022/03/08 09:42:46;;;;;;;4.30;2.10;;;;;;;1.90;68.50;100266.95;103651;1300;22789;-25
2022/03/08 09:45:12;;;;;;;4.50;3.30;;;;;;;2.27;68.92;100263.88;103604;1300;24417;-26
2022/03/08 09:47:38;;;;;;;10.70;2.60;;;;;;;2.41;66.71;100266.48;103539;1300;24297;-26
2022/03/08 09:50:05;;;;;;;6.60;1.80;;;;;;;2.54;65.67;100263.14;103548;1300;24177;-29
2022/03/08 09:52:33;;;;;;;3.70;2.00;;;;;;;2.60;65.92;100261.02;103524;1300;24297;-25
2022/03/08 09:54:58;;;;;;;4.40;2.00;;;;;;;2.88;67.00;100260.35;103574;1300;24327;-24
2022/03/08 09:57:24;;;;;;;10.20;2.80;;;;;;;2.81;66.50;100263.05;103505;1300;22593;-25
2022/03/08 09:59:50;;;;;;;19.20;2.60;;;;;;;2.86;65.76;100264.27;103518;1300;24293;-25
2022/03/08 10:02:15;;;;;;;5.40;2.60;;;;;;;2.86;65.45;100263.54;103500;1300;24348;-26
2022/03/08 10:04:41;;;;;;;3.20;1.70;;;;;;;2.87;65.15;100263.74;103577;1300;24331;-28
2022/03/08 10:07:08;;;;;;;4.10;2.60;;;;;;;3.25;64.81;100265.59;103545;1300;24431;-27
2022/03/08 10:09:34;;;;;;;3.60;2.20;;;;;;;3.36;64.55;100259.21;103562;1300;24314;-25
2022/03/08 10:12:00;;;;;;;2.30;1.80;;;;;;;3.31;63.76;100253.78;103532;1300;24282;-29
2022/03/08 10:14:35;;;;;;;3.80;2.20;;;;;;;3.39;64.84;100252.20;103599;1300;24236;-25
2022/03/08 10:17:01;;;;;;;5.50;2.50;;;;;;;3.37;63.07;100254.27;103610;1300;24336;-25
2022/03/08 10:19:27;;;;;;;8.90;3.00;;;;;;;3.82;63.25;100247.33;103569;1300;24298;-25
2022/03/08 10:21:54;;;;;;;6.10;3.40;;;;;;;3.53;62.63;100252.92;103523;1300;24249;-25
2022/03/08 10:24:23;;;;;;;5.00;2.50;;;;;;;3.47;63.09;100245.29;103568;1300;22631;-30
2022/03/08 10:26:52;;;;;;;6.50;3.10;;;;;;;3.74;64.32;100236.66;103493;1302;24320;-28
2022/03/08 10:29:22;;;;;;;4.00;2.20;;;;;;;4.21;62.90;100232.69;103491;1301;22499;-29
2022/03/08 10:31:48;;;;;;;3.70;3.00;;;;;;;5.06;60.40;100234.10;103521;1300;24307;-26
2022/03/08 10:34:17;;;;;;;7.70;3.10;;;;;;;5.03;59.80;100234.95;103612;1300;24285;-26
2022/03/08 10:36:58;;;;;;;7.10;3.40;;;;;;;4.99;60.42;100232.48;103568;1300;24259;-28
2022/03/08 10:39:24;;;;;;;5.50;4.20;;;;;;;5.12;59.96;100230.91;103582;1303;24332;-28
2022/03/08 10:41:52;;;;;;;4.00;3.60;;;;;;;4.74;58.08;100234.91;103648;1300;24249;-25
2022/03/08 10:44:25;;;;;;;7.30;3.90;;;;;;;4.58;58.39;100235.44;103620;1299;24249;-25
2022/03/08 10:46:57;;;;;;;7.50;3.20;;;;;;;5.03;59.46;100227.66;103547;1300;22960;-25
2022/03/08 10:49:23;;;;;;;5.80;3.30;;;;;;;5.51;57.79;100223.73;103620;1300;22962;-28
2022/03/08 10:51:49;;;;;;;5.50;3.70;;;;;;;5.75;56.92;100217.61;103469;1301;24229;-35
2022/03/08 10:54:15;;;;;;;7.60;4.20;;;;;;;5.74;55.26;100216.60;103664;1299;24238;-26
2022/03/08 10:56:43;;;;;;;6.10;3.40;;;;;;;5.78;55.92;100213.04;103546;1300;24298;-25
2022/03/08 10:59:11;;;;;;;3.70;3.00;;;;;;;5.29;55.45;100211.70;103738;1300;24262;-30
2022/03/08 11:01:38;;;;;;;11.50;3.80;;;;;;;5.90;55.42;100198.70;103582;1300;24247;-30
2022/03/08 11:04:04;;;;;;;8.80;3.90;;;;;;;5.87;54.90;100197.59;103559;1300;24297;-29
2022/03/08 11:06:30;;;;;;;3.10;2.60;;;;;;;6.25;55.33;100201.27;103651;1300;24262;-28